Flight Track Log - Related Links

Times and Time Zones

All times are in EDT time to prevent confusion due to time zone crossing. See the EJA941 flight status page for this flight to view local times or setup timezone preferences in your user account.

Time Position Orientation Groundspeed Altitude Reporting Facility
EDT Latitude Longitude Course Direction KTS MPH feet Rate Location/Type
Thu 11:11:49 AM 30.4467 -81.6758 256° West 211 243 2,900  Level Jacksonville Center
Thu 11:13:20 AM 30.4244 -81.7797 256° West 258 297 4,800 2,305 Climbing Jacksonville Center
Thu 11:14:20 AM 30.4169 -81.8881 265° West 293 337 8,700 3,900 Climbing Jacksonville Center
Thu 11:15:20 AM 30.4178 -81.9819 271° West 299 344 12,600 3,250 Climbing Jacksonville Center
Thu 11:16:20 AM 30.4142 -82.0761 267° West 299 344 15,200 2,250 Climbing Jacksonville Center
Thu 11:17:20 AM 30.4439 -82.1600 292° West 287 330 17,100 2,000 Climbing Jacksonville Center
Thu 11:18:20 AM 30.4842 -82.2489 298° West 292 336 19,200 2,050 Climbing Jacksonville Center
Thu 11:19:20 AM 30.5264 -82.3428 298° West 303 349 21,200 1,900 Climbing Jacksonville Center
Thu 11:20:20 AM 30.5683 -82.4367 297° West 321 369 23,000 1,750 Climbing Jacksonville Center
Thu 11:21:20 AM 30.6125 -82.5328 298° West 332 382 24,700 1,100 Climbing Jacksonville Center
Thu 11:22:20 AM 30.6525 -82.6486 292° West 347 399 25,200 500 Climbing Jacksonville Center
Thu 11:23:20 AM 30.6758 -82.7792 282° West 384 442 25,700 400 Climbing Jacksonville Center
Thu 11:24:20 AM 30.7028 -82.9192 283° West 419 482 26,000 200 Climbing Jacksonville Center
Thu 11:25:20 AM 30.7361 -83.0689 285° West 457 526 26,100 1,200 Climbing Jacksonville Center
Thu 11:26:20 AM 30.7714 -83.2189 285° West 478 550 28,400 1,800 Climbing Jacksonville Center
Thu 11:27:20 AM 30.8294 -83.3425 299° West 484 557 29,700 1,350 Climbing Jacksonville Center
Thu 11:28:20 AM 30.8936 -83.4808 298° West 484 557 31,100 1,150 Climbing Jacksonville Center
Thu 11:29:20 AM 30.9619 -83.6194 300° West 494 568 32,000 450 Climbing Jacksonville Center
Thu 11:30:20 AM 31.0361 -83.7678 300° West 510 587 32,000 50 Level Jacksonville Center
Thu 11:31:20 AM 31.1081 -83.9189 299° West 526 605 32,100 350 Climbing Jacksonville Center
Thu 11:32:20 AM 31.1778 -84.0703 298° West 526 605 32,700 750 Climbing Jacksonville Center
Thu 11:33:20 AM 31.2492 -84.2194 299° West 526 605 33,600 1,050 Climbing Jacksonville Center
Thu 11:34:20 AM 31.3208 -84.3664 300° West 521 600 34,800 894 Climbing Jacksonville Center
Thu 11:36:01 AM 31.4447 -84.6303 299° West 547 629 36,000 447 Climbing Atlanta Center
Thu 11:37:01 AM 31.5003 -84.7475 299° West 542 624 36,000  Level Atlanta Center
Thu 11:38:01 AM 31.5767 -84.9139 298° West 531 611 36,000  Level Atlanta Center
Thu 11:39:01 AM 31.6483 -85.0658 299° West 526 605 36,000  Level Atlanta Center
Thu 11:40:01 AM 31.7158 -85.2181 298° West 526 605 36,000  Level Atlanta Center
Thu 11:41:01 AM 31.7875 -85.3681 299° West 526 605 36,000  Level Atlanta Center
Thu 11:42:01 AM 31.8567 -85.5231 298° West 526 605 36,000  Level Atlanta Center
Thu 11:43:01 AM 31.9300 -85.6761 299° West 526 605 36,000  Level Atlanta Center
Thu 11:44:01 AM 32.0008 -85.8317 298° West 527 606 36,000  Level Atlanta Center
Thu 11:45:01 AM 32.0672 -85.9850 297° West 527 606 36,000  Level Atlanta Center
Thu 11:46:01 AM 32.1500 -86.1558 300° West 532 612 36,000  Level Atlanta Center
Thu 11:47:01 AM 32.2142 -86.3119 296° West 539 620 36,000  Level Atlanta Center
Thu 11:48:01 AM 32.2400 -86.4847 280° West 522 601 36,000  Level Atlanta Center
Thu 11:49:01 AM 32.2511 -86.6569 274° West 527 606 36,000  Level Atlanta Center
Thu 11:50:01 AM 32.2600 -86.8242 274° West 522 601 36,000  Level Atlanta Center
Thu 11:51:01 AM 32.2706 -86.9964 274° West 522 601 36,000  Level Atlanta Center
Thu 11:52:01 AM 32.2831 -87.1664 275° West 522 601 36,000  Level Atlanta Center
Thu 11:53:01 AM 32.2975 -87.3364 276° West 522 601 36,000  Level Atlanta Center
Thu 11:54:01 AM 32.3094 -87.5114 275° West 522 601 36,000  Level Atlanta Center
Thu 11:55:01 AM 32.3211 -87.6839 275° West 522 601 36,000  Level Atlanta Center
Thu 11:56:44 AM 32.3375 -87.9528 274° West 522 601 36,000  Level Memphis Center
Thu 11:57:44 AM 32.3469 -88.1197 274° West 516 594 36,000  Level Memphis Center
Thu 11:58:44 AM 32.3353 -88.2822 265° West 506 582 36,000  Level Memphis Center
Thu 11:59:44 AM 32.2411 -88.4022 227° Southwest 482 555 36,000 -350 Level Memphis Center
Thu 12:00:44 PM 32.1061 -88.4469 196° South 442 509 35,300 -1,650 Descending Memphis Center
Thu 12:01:44 PM 31.9775 -88.4961 198° South 463 533 32,700 -2,621 Descending Memphis Center
Thu 12:04:10 PM 31.6608 -88.6103 197° South 512 589 26,300 -1,933 Descending Houston Center
Thu 12:05:12 PM 31.5094 -88.6667 198° South 486 559 26,000 -339 Descending Houston Center
Thu 12:06:14 PM 31.3875 -88.7111 197° South 466 536 25,600 -1,065 Descending Houston Center
Thu 12:07:16 PM 31.2617 -88.7589 198° South 476 548 23,800 -2,419 Descending Houston Center
Thu 12:08:18 PM 31.1389 -88.8044 198° South 474 545 20,600 -3,048 Descending Houston Center
Thu 12:09:20 PM 31.0086 -88.8500 197° South 419 482 17,500 -3,387 Descending Houston Center
Thu 12:10:22 PM 30.9078 -88.8872 198° South 393 452 13,600 -2,806 Descending Houston Center
Thu 12:11:24 PM 30.8119 -88.9214 197° South 372 428 11,700 -1,742 Descending Houston Center
Thu 12:12:26 PM 30.7461 -88.9819 218° Southwest 314 361 10,000 -1,824 Descending Houston Center
Thu 12:13:29 PM 30.6931 -89.0531 229° Southwest 295 339 7,900 -2,160 Descending Houston Center
Thu 12:14:31 PM 30.6433 -89.1242 231° Southwest 287 330 5,500 -2,081 Descending Houston Center
Thu 12:15:33 PM 30.6047 -89.1847 233° Southwest 242 278 3,600 -1,306 Descending Houston Center
Thu 12:16:35 PM 30.5708 -89.2433 236° Southwest 222 255 2,800 -726 Descending Houston Center
Thu 12:17:37 PM 30.5464 -89.2408 175° South 164 189 2,100 -387 Descending Houston Center
Thu 12:18:39 PM 30.5242 -89.2094 129° Southeast 136 157 2,000 -48 Descending Houston Center
Thu 12:19:41 PM 30.5006 -89.1808 134° Southeast 126 145 2,000 -145 Level Houston Center
Thu 12:20:43 PM 30.4761 -89.1533 136° Southeast 123 142 1,700 -435 Descending Houston Center
Thu 12:21:45 PM 30.4531 -89.1264 135° Southeast 120 138 1,100 -432 Descending Houston Center
Thu 12:22:48 PM 30.4269 -89.0975 136° Southeast 119 137 800 -286 Descending Houston Center
Thu 12:24:00 PM 30.4000 -89.0667 133° Southeast  Level FlightAware Approximate
Thu 12:31:00 PM 30.4073 -89.0701 133° Southeast  Level Estimated

Login

Don't have an account? Register now (free) for customized features, flight alerts, and more!